Time;durP1;ratioP1;P1;durP2;ratioP2;P2;SDS_P1;SDS_P2;PMS_P1;PMS_P2;Temp;Humidity;BMP_temperature;BMP_pressure;BME280_temperature;BME280_humidity;BME280_pressure;Samples;Min_cycle;Max_cycle;Signal;HPM_P1;HPM_P2
2021/04/02 00:01:52;;;;;;;5.10;1.80;;;;;;;6.07;63.37;98123.94;10627080;27;20043;-56
2021/04/02 00:06:53;;;;;;;4.53;2.20;;;;;;;6.03;63.99;98108.69;10627077;27;20047;-60
2021/04/02 00:11:56;;;;;;;6.03;1.88;;;;;;;5.96;63.20;98114.47;10628928;28;20142;-55
2021/04/02 00:16:57;;;;;;;4.47;1.70;;;;;;;5.90;63.25;98096.75;10626727;28;20043;-55
2021/04/02 00:21:59;;;;;;;4.53;1.75;;;;;;;5.85;63.36;98091.16;10626002;28;20058;-54
2021/04/02 00:27:02;;;;;;;6.07;2.83;;;;;;;5.79;63.27;98076.06;10626031;27;20128;-53
2021/04/02 00:32:04;;;;;;;6.82;2.53;;;;;;;5.78;63.35;98071.78;10626344;27;20517;-53
2021/04/02 00:37:06;;;;;;;7.03;2.90;;;;;;;5.81;63.64;98065.47;10628220;27;20055;-53
2021/04/02 00:42:09;;;;;;;6.75;3.20;;;;;;;5.82;63.38;98044.50;10631023;27;20439;-53
2021/04/02 00:47:10;;;;;;;8.85;2.95;;;;;;;5.78;63.71;98043.13;10607549;28;20052;-52
2021/04/02 00:52:12;;;;;;;6.78;3.53;;;;;;;5.86;63.29;98040.63;10590217;28;20189;-55
2021/04/02 00:57:15;;;;;;;8.30;5.25;;;;;;;5.77;63.65;98036.25;10591378;28;20051;-53
2021/04/02 01:02:16;;;;;;;13.90;8.57;;;;;;;5.65;63.53;98026.97;10590974;28;20047;-54
2021/04/02 01:07:19;;;;;;;14.70;7.65;;;;;;;5.63;63.65;98026.28;10589832;28;20058;-53
2021/04/02 01:12:22;;;;;;;14.90;8.37;;;;;;;5.66;64.19;98024.19;10590249;28;20079;-55
2021/04/02 01:17:25;;;;;;;14.13;7.97;;;;;;;5.77;63.75;98012.81;10590908;28;20514;-54
2021/04/02 01:22:29;;;;;;;13.38;7.75;;;;;;;5.84;63.58;98023.47;10590695;28;20075;-53
2021/04/02 01:27:40;;;;;;;13.30;5.88;;;;;;;5.84;63.52;98006.03;10588299;28;20059;-52
2021/04/02 01:32:45;;;;;;;12.00;6.22;;;;;;;5.66;63.35;98005.13;10591477;28;20043;-53
2021/04/02 01:38:00;;;;;;;10.73;6.63;;;;;;;5.56;63.67;98001.75;10589531;28;20074;-52
2021/04/02 01:43:05;;;;;;;10.57;5.20;;;;;;;5.52;63.77;98001.19;10593590;27;20039;-54
2021/04/02 01:48:10;;;;;;;13.13;6.57;;;;;;;5.44;63.74;97999.28;10631537;27;20092;-55
2021/04/02 01:53:14;;;;;;;11.52;5.50;;;;;;;5.40;64.07;97990.09;10632071;27;20070;-53
2021/04/02 01:58:18;;;;;;;9.57;5.38;;;;;;;5.38;64.14;97976.38;10630499;27;20502;-55
2021/04/02 02:03:22;;;;;;;9.18;4.85;;;;;;;5.31;64.33;97970.09;10630079;27;20044;-54
2021/04/02 02:08:26;;;;;;;6.72;3.42;;;;;;;5.15;64.35;97964.66;10630251;27;20062;-52
2021/04/02 02:13:33;;;;;;;5.57;3.10;;;;;;;4.99;64.47;97966.03;10631765;27;20043;-53
2021/04/02 02:18:45;;;;;;;7.68;5.00;;;;;;;4.89;64.37;97972.19;10632778;27;20059;-52
2021/04/02 02:23:47;;;;;;;;;;;;;;;4.79;65.28;97985.19;10631129;27;20110;-53
2021/04/02 02:28:50;;;;;;;12.07;7.80;;;;;;;4.73;64.72;97972.72;10630317;27;19970;-57
2021/04/02 02:33:54;;;;;;;15.05;9.75;;;;;;;4.68;65.09;97972.31;10631074;27;20055;-52
2021/04/02 02:39:15;;;;;;;17.15;10.50;;;;;;;4.68;64.71;97961.91;10628900;27;20051;-53
2021/04/02 02:44:22;;;;;;;15.80;8.90;;;;;;;4.59;64.73;97956.56;10628986;27;20050;-52
2021/04/02 02:49:28;;;;;;;15.23;9.53;;;;;;;4.51;64.86;97963.41;10628805;27;20119;-54
2021/04/02 02:54:34;;;;;;;14.40;8.32;;;;;;;4.50;65.28;97959.16;10628888;27;20043;-53
2021/04/02 02:59:39;;;;;;;16.77;8.85;;;;;;;4.47;65.53;97957.66;10628199;27;20075;-60
2021/04/02 03:04:49;;;;;;;14.45;8.35;;;;;;;4.39;65.14;97945.28;10631233;27;20050;-52
2021/04/02 03:09:56;;;;;;;14.52;8.35;;;;;;;4.30;66.10;97961.72;10629978;27;20163;-53
2021/04/02 03:15:01;;;;;;;12.10;7.80;;;;;;;4.26;66.11;97949.13;10667952;27;20043;-54
2021/04/02 03:20:06;;;;;;;12.27;7.45;;;;;;;4.21;65.94;97944.31;10669797;27;20478;-52
2021/04/02 03:25:11;;;;;;;13.75;7.85;;;;;;;4.22;65.66;97932.13;10670738;27;20479;-55
2021/04/02 03:30:20;;;;;;;12.02;6.57;;;;;;;4.21;66.05;97936.50;10670212;27;20431;-54
2021/04/02 03:35:25;;;;;;;12.63;7.07;;;;;;;4.10;66.01;97945.25;10668824;27;20481;-52
2021/04/02 03:40:29;;;;;;;12.57;6.55;;;;;;;4.08;66.16;97952.34;10670602;27;20058;-52
2021/04/02 03:45:35;;;;;;;12.20;6.90;;;;;;;4.08;66.23;97947.16;10670015;27;20502;-52
2021/04/02 03:50:42;;;;;;;11.40;6.25;;;;;;;4.00;66.79;97939.19;10670113;27;20043;-51
2021/04/02 03:55:48;;;;;;;12.30;6.45;;;;;;;4.04;66.55;97943.19;10666000;27;20070;-51
2021/04/02 04:00:54;;;;;;;13.90;7.57;;;;;;;4.02;66.84;97944.25;10626865;27;20042;-53
2021/04/02 04:06:01;;;;;;;13.63;7.95;;;;;;;3.96;66.98;97937.00;10625169;27;20043;-54
2021/04/02 04:11:06;;;;;;;14.07;8.48;;;;;;;3.91;67.35;97924.41;10627495;28;20143;-52
2021/04/02 04:16:08;;;;;;;13.18;7.32;;;;;;;3.87;67.70;97930.81;10626730;27;20039;-56
2021/04/02 04:21:12;;;;;;;15.13;7.55;;;;;;;3.82;67.90;97941.59;10627280;27;20147;-54
2021/04/02 04:26:28;;;;;;;14.25;7.70;;;;;;;3.86;67.64;97934.38;10631870;27;20103;-51
2021/04/02 04:31:32;;;;;;;12.00;6.32;;;;;;;3.84;67.44;97929.28;10634283;27;20054;-55
2021/04/02 04:36:35;;;;;;;11.00;6.57;;;;;;;3.79;68.05;97909.88;10637283;27;20051;-60
2021/04/02 04:41:39;;;;;;;14.40;7.72;;;;;;;3.74;67.92;97910.25;10635096;27;20069;-52
2021/04/02 04:46:41;;;;;;;13.90;7.13;;;;;;;3.66;68.36;97926.50;10634411;27;20119;-52
2021/04/02 04:51:44;;;;;;;12.48;6.97;;;;;;;3.75;67.83;97943.06;10636466;27;20047;-57
2021/04/02 04:56:46;;;;;;;15.10;7.83;;;;;;;3.81;68.11;97933.94;10633725;27;20505;-52
2021/04/02 05:01:52;;;;;;;15.07;7.00;;;;;;;3.76;68.05;97920.53;10634644;27;20108;-54
2021/04/02 05:06:57;;;;;;;12.25;7.25;;;;;;;3.80;68.41;97922.72;10639119;27;20075;-53
2021/04/02 05:12:00;;;;;;;13.77;7.25;;;;;;;3.86;68.26;97921.38;10634650;27;20043;-52
2021/04/02 05:17:03;;;;;;;14.07;6.78;;;;;;;3.93;67.72;97917.28;10633276;27;20069;-57
2021/04/02 05:22:06;;;;;;;13.32;6.32;;;;;;;3.80;67.96;97911.50;10633308;27;20414;-54
2021/04/02 05:27:08;;;;;;;13.13;7.32;;;;;;;3.81;68.10;97918.34;10633052;27;20074;-53
2021/04/02 05:32:10;;;;;;;14.00;6.88;;;;;;;3.83;68.30;97909.44;10633078;27;20498;-52
2021/04/02 05:37:13;;;;;;;13.32;7.70;;;;;;;3.78;68.60;97916.00;10632171;27;20498;-52
2021/04/02 05:42:21;;;;;;;12.45;7.43;;;;;;;3.87;68.41;97912.59;10632071;27;20051;-54
2021/04/02 05:47:26;;;;;;;11.95;6.22;;;;;;;3.89;68.66;97915.91;10631907;27;20043;-54
2021/04/02 05:52:29;;;;;;;12.27;6.10;;;;;;;3.87;69.22;97912.59;10631787;27;20054;-51
2021/04/02 05:57:32;;;;;;;7.63;4.45;;;;;;;3.98;69.16;97914.28;10631864;27;20051;-52
2021/04/02 06:02:33;;;;;;;10.27;5.05;;;;;;;3.95;69.62;97915.38;10631955;27;20054;-51
2021/04/02 06:07:38;;;;;;;10.77;4.68;;;;;;;4.11;69.77;97918.28;10632246;27;20055;-55
2021/04/02 06:12:41;;;;;;;10.63;5.30;;;;;;;4.28;70.26;97910.78;10631641;27;20074;-51
2021/04/02 06:18:07;;;;;;;11.80;5.72;;;;;;;4.47;70.50;97900.41;10629984;27;20062;-52
2021/04/02 06:23:14;;;;;;;9.50;5.45;;;;;;;4.58;70.36;97889.84;10617105;27;20055;-51
2021/04/02 06:28:23;;;;;;;12.32;5.68;;;;;;;4.78;70.25;97887.25;10629920;27;20051;-51
2021/04/02 06:33:34;;;;;;;12.20;6.13;;;;;;;5.04;70.04;97888.28;10630178;27;20103;-52
2021/04/02 06:38:41;;;;;;;12.25;6.38;;;;;;;5.00;70.50;97883.50;10629488;27;20043;-54
2021/04/02 06:43:44;;;;;;;10.68;6.57;;;;;;;4.90;70.22;97890.53;10629744;27;20046;-51
2021/04/02 06:48:46;;;;;;;11.82;7.55;;;;;;;5.07;71.04;97893.22;10628951;27;20403;-51
2021/04/02 06:53:50;;;;;;;11.88;6.30;;;;;;;5.30;70.31;97885.91;10629697;27;20039;-54
2021/04/02 06:58:53;;;;;;;11.52;6.30;;;;;;;5.53;70.29;97882.94;10629025;27;20047;-52
2021/04/02 07:03:55;;;;;;;11.47;5.53;;;;;;;5.65;70.04;97878.38;10628620;27;20051;-52
2021/04/02 07:09:00;;;;;;;8.90;4.72;;;;;;;5.81;70.74;97881.16;10627663;27;20047;-52
2021/04/02 07:14:02;;;;;;;8.98;5.35;;;;;;;6.29;70.65;97889.72;10627882;27;20066;-54
2021/04/02 07:19:04;;;;;;;11.20;5.07;;;;;;;6.55;70.09;97887.19;10629728;27;20047;-50
2021/04/02 07:24:08;;;;;;;9.32;5.20;;;;;;;6.61;69.86;97882.16;10631467;27;20055;-54
2021/04/02 07:29:10;;;;;;;9.95;5.68;;;;;;;7.19;69.38;97865.13;10629362;27;20100;-52
2021/04/02 07:34:14;;;;;;;10.15;5.70;;;;;;;7.99;68.62;97870.06;10629276;27;20406;-54
2021/04/02 07:39:19;;;;;;;9.25;5.20;;;;;;;8.66;66.51;97870.06;10626983;27;20051;-53
2021/04/02 07:44:21;;;;;;;6.65;3.67;;;;;;;8.69;66.25;97878.41;10630704;27;20133;-52
2021/04/02 07:49:23;;;;;;;7.22;4.43;;;;;;;8.56;66.15;97888.56;10630539;27;20047;-56
2021/04/02 07:54:33;;;;;;;6.60;3.75;;;;;;;8.39;65.68;97889.50;10627922;27;20057;-52
2021/04/02 07:59:36;;;;;;;7.20;4.05;;;;;;;8.01;65.73;97892.50;10626932;27;20142;-51
2021/04/02 08:04:39;;;;;;;9.57;4.50;;;;;;;7.84;67.00;97886.34;10627498;27;20397;-53
2021/04/02 08:09:43;;;;;;;7.43;4.28;;;;;;;7.56;66.93;97896.22;10626956;27;20051;-54
2021/04/02 08:14:47;;;;;;;;;;;;;;;7.66;67.11;97901.31;10626428;27;20035;-54
2021/04/02 08:19:49;;;;;;;7.07;4.68;;;;;;;7.67;67.02;97899.56;10626392;28;19935;-53
2021/04/02 08:24:52;;;;;;;9.30;5.32;;;;;;;7.76;67.37;97907.28;10626406;27;20065;-52
2021/04/02 08:30:04;;;;;;;9.68;5.43;;;;;;;7.80;67.31;97920.84;10626440;28;20051;-53
2021/04/02 08:35:07;;;;;;;6.60;3.35;;;;;;;7.48;66.93;97914.50;10626383;27;20051;-52
2021/04/02 08:40:13;;;;;;;8.48;4.38;;;;;;;7.46;67.02;97915.63;10625949;27;20155;-52
2021/04/02 08:45:16;;;;;;;10.75;4.40;;;;;;;7.61;67.35;97921.91;10626043;28;20043;-52
2021/04/02 08:50:17;;;;;;;7.43;3.73;;;;;;;7.45;67.14;97929.63;10624903;28;20058;-53
2021/04/02 08:55:20;;;;;;;6.43;3.38;;;;;;;7.62;67.92;97926.16;10625113;28;20163;-51
2021/04/02 09:00:25;;;;;;;6.45;3.25;;;;;;;7.87;67.58;97923.66;10625631;28;20051;-52
2021/04/02 09:05:27;;;;;;;6.95;3.50;;;;;;;8.17;67.37;97924.91;10625325;27;20099;-53
2021/04/02 09:10:30;;;;;;;8.18;3.63;;;;;;;8.30;66.76;97922.66;10629086;27;20054;-60
2021/04/02 09:15:33;;;;;;;6.13;2.90;;;;;;;8.30;65.90;97920.84;10633968;27;20043;-52
2021/04/02 09:20:35;;;;;;;6.75;3.00;;;;;;;8.01;65.94;97917.84;10632608;27;20055;-51
2021/04/02 09:25:43;;;;;;;6.63;3.10;;;;;;;8.10;66.32;97922.13;10635809;27;20058;-52
2021/04/02 09:30:44;;;;;;;6.22;3.05;;;;;;;8.57;66.72;97915.56;10639665;27;20205;-52
2021/04/02 09:35:47;;;;;;;6.43;3.00;;;;;;;8.67;66.24;97910.97;10632848;27;20054;-52
2021/04/02 09:40:51;;;;;;;5.72;3.20;;;;;;;8.56;66.39;97919.97;10634753;27;20058;-53
2021/04/02 09:45:52;;;;;;;5.97;2.90;;;;;;;8.20;65.20;97925.41;10634122;27;20058;-54
2021/04/02 09:50:54;;;;;;;8.30;2.90;;;;;;;8.11;66.10;97920.31;10632056;27;20043;-54
2021/04/02 09:55:57;;;;;;;6.47;2.83;;;;;;;8.30;66.53;97928.72;10631568;27;20039;-53
2021/04/02 10:00:58;;;;;;;6.43;3.37;;;;;;;8.44;66.25;97926.50;10631498;27;20084;-53
2021/04/02 10:06:00;;;;;;;5.70;2.85;;;;;;;8.42;66.65;97916.16;10631995;27;20775;-52
2021/04/02 10:11:03;;;;;;;5.38;2.58;;;;;;;8.90;66.12;97921.66;10630754;27;20051;-53
2021/04/02 10:16:05;;;;;;;6.05;2.78;;;;;;;8.91;65.09;97933.75;10631107;27;20371;-60
2021/04/02 10:21:07;;;;;;;5.25;2.65;;;;;;;8.81;64.53;97935.72;10630559;27;20394;-58
2021/04/02 10:26:10;;;;;;;8.43;2.72;;;;;;;9.06;65.06;97937.38;10631232;27;20051;-52
2021/04/02 10:31:13;;;;;;;6.13;3.00;;;;;;;9.25;64.83;97940.63;10634221;27;20487;-54
2021/04/02 10:36:15;;;;;;;4.35;2.53;;;;;;;9.53;64.49;97934.03;10629358;27;20055;-53
2021/04/02 10:41:18;;;;;;;6.30;2.88;;;;;;;9.57;63.47;97940.56;10632342;27;20475;-52
2021/04/02 10:46:19;;;;;;;5.07;2.80;;;;;;;10.03;63.37;97940.75;10629592;27;20053;-52
2021/04/02 10:51:21;;;;;;;7.15;3.10;;;;;;;10.37;62.88;97942.28;10629554;27;20058;-52
2021/04/02 10:56:24;;;;;;;5.00;2.78;;;;;;;10.30;62.68;97941.34;10629409;27;20043;-52
2021/04/02 11:01:26;;;;;;;5.60;2.83;;;;;;;10.40;62.21;97943.75;10629454;27;20051;-52
2021/04/02 11:06:27;;;;;;;7.20;3.28;;;;;;;10.49;63.57;97938.25;10628899;27;20078;-54
2021/04/02 11:11:30;;;;;;;6.60;3.90;;;;;;;10.79;63.37;97948.94;10635484;27;20516;-53
2021/04/02 11:16:32;;;;;;;7.22;3.80;;;;;;;11.15;63.60;97937.81;10627787;27;20523;-54
2021/04/02 11:21:33;;;;;;;5.47;3.20;;;;;;;11.49;63.10;97932.06;10626979;27;20051;-54
2021/04/02 11:26:36;;;;;;;10.18;3.72;;;;;;;11.63;62.45;97923.34;10627848;27;20158;-55
2021/04/02 11:31:38;;;;;;;7.00;3.90;;;;;;;11.52;61.88;97913.28;10625862;27;20372;-54
2021/04/02 11:36:40;;;;;;;8.95;4.57;;;;;;;11.75;63.09;97905.31;10626477;27;20127;-53
2021/04/02 11:41:42;;;;;;;8.02;4.05;;;;;;;11.85;61.60;97897.97;10625565;27;20539;-54
2021/04/02 11:46:44;;;;;;;6.43;3.90;;;;;;;11.83;63.24;97907.84;10634038;27;20075;-56
2021/04/02 11:51:46;;;;;;;8.00;4.45;;;;;;;12.22;63.02;97906.72;10623803;27;20076;-53
2021/04/02 11:56:49;;;;;;;11.65;4.20;;;;;;;12.58;62.59;97916.44;10624510;27;20141;-53
2021/04/02 12:01:50;;;;;;;7.68;4.70;;;;;;;12.88;62.48;97911.88;10624853;27;20066;-56
2021/04/02 12:06:52;;;;;;;8.93;4.30;;;;;;;13.11;62.46;97920.38;10625092;27;20039;-54
2021/04/02 12:11:54;;;;;;;5.93;4.07;;;;;;;13.22;62.21;97915.63;10625339;27;20047;-52
2021/04/02 12:16:56;;;;;;;9.68;5.05;;;;;;;13.00;60.23;97920.09;10623942;28;20050;-54
2021/04/02 12:21:57;;;;;;;9.82;4.30;;;;;;;12.49;61.43;97918.38;10624234;27;20055;-54
2021/04/02 12:27:00;;;;;;;11.20;4.78;;;;;;;12.25;61.08;97911.63;10627229;28;20051;-53
2021/04/02 12:32:03;;;;;;;7.90;3.97;;;;;;;11.72;61.79;97908.31;10624897;27;20142;-53
2021/04/02 12:37:06;;;;;;;6.73;3.30;;;;;;;11.55;61.80;97912.13;10626542;27;20039;-53
2021/04/02 12:42:09;;;;;;;7.53;3.93;;;;;;;11.52;62.09;97911.47;10623949;28;20325;-53
2021/04/02 12:47:11;;;;;;;8.10;3.78;;;;;;;11.42;61.81;97918.81;10629289;27;20448;-53
2021/04/02 12:52:13;;;;;;;14.15;3.83;;;;;;;11.30;62.42;97920.25;10633486;27;20058;-52
2021/04/02 12:57:16;;;;;;;8.10;3.10;;;;;;;11.13;62.14;97913.50;10640217;27;20391;-52
2021/04/02 13:02:18;;;;;;;5.55;2.10;;;;;;;10.97;62.38;97912.66;10632882;27;20206;-59
2021/04/02 13:07:19;;;;;;;6.28;2.38;;;;;;;11.16;62.52;97906.06;10631922;27;20443;-53
2021/04/02 13:12:22;;;;;;;6.60;2.25;;;;;;;11.50;61.17;97912.66;10633333;27;20138;-52
2021/04/02 13:17:23;;;;;;;5.43;2.22;;;;;;;11.72;60.06;97910.94;10631815;27;20135;-54
2021/04/02 13:22:25;;;;;;;5.80;2.28;;;;;;;11.28;59.56;97911.72;10631761;27;20047;-53
2021/04/02 13:27:27;;;;;;;6.10;2.17;;;;;;;11.40;59.82;97912.91;10631805;27;20066;-53
2021/04/02 13:32:29;;;;;;;5.25;2.05;;;;;;;11.26;58.69;97916.34;10631021;27;20138;-53
2021/04/02 13:37:31;;;;;;;6.47;2.25;;;;;;;11.07;57.74;97912.41;10631360;27;20051;-53
2021/04/02 13:42:34;;;;;;;8.73;2.38;;;;;;;10.95;58.87;97912.00;10634903;27;20047;-52
2021/04/02 13:47:36;;;;;;;6.87;2.87;;;;;;;10.97;58.86;97912.66;10633193;27;20134;-52
2021/04/02 13:52:38;;;;;;;9.57;2.42;;;;;;;10.94;58.66;97913.00;10633926;27;20400;-58
2021/04/02 13:57:41;;;;;;;5.07;2.28;;;;;;;10.88;58.87;97903.19;10636825;27;20055;-53
2021/04/02 14:02:43;;;;;;;10.27;2.53;;;;;;;10.94;59.08;97910.38;10629419;27;20047;-52
2021/04/02 14:07:45;;;;;;;5.00;2.20;;;;;;;10.71;59.64;97917.44;10630077;27;20051;-54
2021/04/02 14:12:48;;;;;;;6.40;2.75;;;;;;;10.54;60.28;97911.47;10630374;27;20070;-53
2021/04/02 14:17:51;;;;;;;6.38;2.53;;;;;;;10.57;60.14;97911.13;10638145;27;20045;-53
2021/04/02 14:22:52;;;;;;;3.90;1.60;;;;;;;10.34;59.18;97905.84;10630219;27;20142;-53
2021/04/02 14:27:56;;;;;;;4.40;1.80;;;;;;;10.15;60.09;97910.50;10629708;27;20064;-54
2021/04/02 14:32:57;;;;;;;7.85;1.95;;;;;;;10.22;59.94;97915.06;10641179;27;20475;-60
2021/04/02 14:38:00;;;;;;;5.55;1.35;;;;;;;10.10;59.55;97915.47;10630781;27;20039;-52
2021/04/02 14:43:03;;;;;;;4.82;2.45;;;;;;;10.08;60.17;97919.25;10631800;27;20062;-56
2021/04/02 14:48:05;;;;;;;9.63;1.90;;;;;;;10.10;59.80;97922.53;10633536;27;20051;-53
2021/04/02 14:53:07;;;;;;;7.13;2.25;;;;;;;10.12;60.06;97923.16;10629060;27;20064;-54
2021/04/02 14:58:10;;;;;;;6.35;2.20;;;;;;;10.03;58.95;97922.38;10629843;27;20055;-54
2021/04/02 15:03:12;;;;;;;5.43;2.22;;;;;;;10.04;59.78;97926.66;10628291;27;20138;-53
2021/04/02 15:08:13;;;;;;;5.47;2.13;;;;;;;10.24;59.73;97934.09;10627758;27;20075;-54
2021/04/02 15:13:16;;;;;;;9.02;2.53;;;;;;;10.35;59.36;97920.63;10631017;27;20047;-54
2021/04/02 15:18:18;;;;;;;6.38;2.95;;;;;;;10.55;59.05;97929.69;10628461;27;20051;-52
2021/04/02 15:23:20;;;;;;;7.28;2.97;;;;;;;10.68;58.49;97928.28;10630899;27;20066;-54
2021/04/02 15:28:22;;;;;;;5.18;2.30;;;;;;;10.65;58.14;97939.16;10628637;27;20498;-54
2021/04/02 15:33:24;;;;;;;6.35;1.88;;;;;;;10.59;58.06;97944.13;10627450;27;20233;-53
2021/04/02 15:38:25;;;;;;;7.00;2.13;;;;;;;10.42;58.31;97944.41;10626100;27;20130;-56
2021/04/02 15:43:28;;;;;;;6.22;2.30;;;;;;;10.28;58.28;97949.41;10627321;27;20043;-52
2021/04/02 15:48:29;;;;;;;5.82;2.10;;;;;;;10.27;58.05;97953.00;10614053;27;20130;-53
2021/04/02 15:53:31;;;;;;;6.70;2.10;;;;;;;10.19;57.64;97954.81;10622312;27;20497;-53
2021/04/02 15:58:34;;;;;;;7.35;2.22;;;;;;;10.05;57.54;97959.78;10626160;27;20051;-54
2021/04/02 16:03:35;;;;;;;4.53;1.77;;;;;;;9.83;57.15;97961.34;10626402;27;20054;-53
2021/04/02 16:08:37;;;;;;;5.20;1.92;;;;;;;9.67;57.29;97962.22;10626069;27;20089;-52
2021/04/02 16:13:40;;;;;;;5.28;2.00;;;;;;;9.64;57.19;97957.28;10625701;27;20203;-59
2021/04/02 16:18:41;;;;;;;10.82;1.92;;;;;;;9.50;57.43;97968.47;10625618;27;20142;-53
2021/04/02 16:23:43;;;;;;;6.90;2.17;;;;;;;9.39;57.17;97977.50;10633888;27;20047;-53
2021/04/02 16:28:46;;;;;;;6.82;2.40;;;;;;;9.15;56.92;97970.47;10634007;27;20066;-53
2021/04/02 16:33:47;;;;;;;6.28;2.17;;;;;;;8.95;57.32;97982.22;10635243;27;20047;-53
2021/04/02 16:38:49;;;;;;;7.28;2.85;;;;;;;8.70;57.27;97979.56;10640980;27;20051;-52
2021/04/02 16:43:51;;;;;;;10.68;4.43;;;;;;;8.59;57.33;97982.53;10634456;27;20505;-54
2021/04/02 16:48:53;;;;;;;10.93;3.47;;;;;;;8.47;57.28;97991.66;10639572;27;20116;-53
2021/04/02 16:53:55;;;;;;;7.82;2.60;;;;;;;8.27;57.17;97988.44;10636346;27;20472;-58
2021/04/02 16:58:57;;;;;;;8.48;2.70;;;;;;;8.14;57.22;97988.88;10641736;27;20046;-53
2021/04/02 17:03:59;;;;;;;7.35;2.25;;;;;;;8.02;57.49;98000.59;10637547;27;20043;-52
2021/04/02 17:09:01;;;;;;;5.75;2.25;;;;;;;7.90;57.36;98001.84;10633533;27;20068;-53
2021/04/02 17:14:04;;;;;;;8.45;3.13;;;;;;;7.73;57.83;98011.41;10632376;27;20088;-53
2021/04/02 17:19:05;;;;;;;6.13;2.50;;;;;;;7.63;58.15;98005.44;10633243;27;20054;-53
2021/04/02 17:24:08;;;;;;;13.70;3.35;;;;;;;7.48;58.41;98005.16;10632850;27;20047;-52
2021/04/02 17:29:10;;;;;;;9.55;3.40;;;;;;;7.37;58.15;98011.47;10630728;27;20059;-54
2021/04/02 17:34:12;;;;;;;9.63;3.45;;;;;;;7.25;58.58;98013.47;10632381;27;20043;-52
2021/04/02 17:39:14;;;;;;;12.52;3.65;;;;;;;7.15;58.63;98016.19;10631820;27;20540;-53
2021/04/02 17:44:17;;;;;;;13.13;3.83;;;;;;;7.09;58.48;98019.41;10631488;27;20054;-53
2021/04/02 17:49:19;;;;;;;9.43;3.53;;;;;;;7.05;58.81;98025.06;10631567;27;20058;-53
2021/04/02 17:54:22;;;;;;;12.32;3.45;;;;;;;6.96;59.33;98029.41;10631962;27;20043;-55
2021/04/02 17:59:24;;;;;;;10.43;4.20;;;;;;;6.85;59.31;98027.81;10632884;27;20470;-52
2021/04/02 18:04:26;;;;;;;12.13;3.65;;;;;;;6.82;59.34;98025.50;10631501;27;20498;-53
2021/04/02 18:09:28;;;;;;;11.10;4.63;;;;;;;6.77;59.73;98024.28;10630903;27;20145;-54
2021/04/02 18:14:34;;;;;;;11.07;4.75;;;;;;;6.82;59.44;98033.34;10627644;27;20043;-52
2021/04/02 18:19:37;;;;;;;9.80;4.53;;;;;;;6.85;59.06;98025.22;10630214;27;20116;-52
2021/04/02 18:24:39;;;;;;;8.87;4.27;;;;;;;6.86;59.52;98021.63;10630106;27;20465;-53
2021/04/02 18:29:42;;;;;;;14.68;5.10;;;;;;;6.88;59.42;98018.88;10626753;27;20058;-53
2021/04/02 18:34:44;;;;;;;11.50;4.33;;;;;;;6.90;59.71;98015.16;10631454;27;20104;-53
2021/04/02 18:39:45;;;;;;;9.13;3.67;;;;;;;7.00;59.43;98019.47;10631147;27;20115;-58
2021/04/02 18:44:48;;;;;;;10.50;3.75;;;;;;;7.01;58.97;98026.34;10631141;27;20183;-53
2021/04/02 18:49:49;;;;;;;9.63;3.92;;;;;;;6.96;58.71;98020.72;10630343;27;20055;-52
2021/04/02 18:54:51;;;;;;;9.20;3.92;;;;;;;6.90;59.21;98019.56;10630857;27;20054;-57
2021/04/02 18:59:53;;;;;;;10.30;4.53;;;;;;;6.86;58.61;98019.00;10632837;27;20051;-55
2021/04/02 19:04:55;;;;;;;14.02;4.72;;;;;;;6.87;58.61;98017.25;10632271;27;20078;-53
2021/04/02 19:09:57;;;;;;;15.10;5.22;;;;;;;6.84;58.82;98018.34;10625818;27;20051;-53
2021/04/02 19:14:59;;;;;;;19.90;8.07;;;;;;;6.80;58.99;98024.81;10582588;28;20484;-53
2021/04/02 19:20:01;;;;;;;23.15;9.40;;;;;;;6.78;58.85;98026.78;10582900;28;20415;-53
2021/04/02 19:25:03;;;;;;;20.98;9.70;;;;;;;6.77;58.75;98017.28;10587989;28;20059;-55
2021/04/02 19:30:09;;;;;;;21.40;10.65;;;;;;;6.82;58.75;98030.72;10585760;28;20055;-52
2021/04/02 19:35:12;;;;;;;22.08;9.35;;;;;;;6.79;58.91;98031.03;10584777;28;20047;-53
2021/04/02 19:40:15;;;;;;;26.65;11.30;;;;;;;6.75;59.42;98028.88;10585005;28;20047;-53
2021/04/02 19:45:18;;;;;;;20.38;9.25;;;;;;;6.70;58.87;98031.91;10585295;27;20035;-53
2021/04/02 19:50:20;;;;;;;19.90;8.75;;;;;;;6.62;59.56;98030.03;10616576;27;20058;-52
2021/04/02 19:55:23;;;;;;;21.83;9.15;;;;;;;6.58;59.72;98025.25;10625334;27;20050;-53
2021/04/02 20:00:28;;;;;;;15.75;5.45;;;;;;;6.51;59.40;98030.22;10626862;27;20147;-54
2021/04/02 20:05:31;;;;;;;9.68;4.38;;;;;;;6.52;59.75;98026.66;10587450;27;20058;-54
2021/04/02 20:10:34;;;;;;;12.30;5.53;;;;;;;6.51;59.85;98032.84;10584344;28;20476;-53
2021/04/02 20:15:36;;;;;;;16.58;7.38;;;;;;;6.58;60.14;98031.28;10583471;28;20476;-52
2021/04/02 20:20:40;;;;;;;14.17;6.03;;;;;;;6.72;60.05;98023.94;10585747;28;20507;-53
2021/04/02 20:25:42;;;;;;;14.27;5.05;;;;;;;6.90;59.66;98024.78;10583252;28;20058;-59
2021/04/02 20:30:44;;;;;;;12.38;4.68;;;;;;;7.05;59.62;98027.66;10584062;28;20108;-52
2021/04/02 20:35:46;;;;;;;10.25;4.95;;;;;;;7.16;59.16;98017.00;10586795;28;20171;-53
2021/04/02 20:40:48;;;;;;;14.57;5.30;;;;;;;7.20;59.14;98018.34;10584573;28;20059;-54
2021/04/02 20:45:51;;;;;;;17.25;7.93;;;;;;;7.10;59.06;98020.22;10582970;28;20058;-53
2021/04/02 20:50:53;;;;;;;9.67;5.00;;;;;;;6.94;59.50;98014.84;10586522;28;20526;-56
2021/04/02 20:55:54;;;;;;;14.05;5.80;;;;;;;6.80;59.29;98011.75;10586303;28;20047;-52
2021/04/02 21:00:57;;;;;;;19.63;5.65;;;;;;;6.64;59.41;98015.03;10583762;28;20047;-53
2021/04/02 21:05:58;;;;;;;17.33;6.15;;;;;;;6.56;58.91;98011.50;10583951;28;20053;-52
2021/04/02 21:11:00;;;;;;;11.50;6.03;;;;;;;6.48;58.90;98008.81;10590566;28;20139;-54
2021/04/02 21:16:03;;;;;;;13.85;6.38;;;;;;;6.38;58.94;98009.69;10590987;28;20047;-53
2021/04/02 21:21:06;;;;;;;15.70;5.53;;;;;;;6.31;59.48;98007.81;10591932;28;20043;-52
2021/04/02 21:26:07;;;;;;;8.90;4.57;;;;;;;6.21;59.69;98010.47;10590371;28;20055;-52
2021/04/02 21:31:10;;;;;;;10.00;4.63;;;;;;;6.11;59.30;98007.09;10593463;28;20057;-53
2021/04/02 21:36:11;;;;;;;18.88;7.43;;;;;;;5.99;59.88;98012.47;10590430;28;20043;-53
2021/04/02 21:41:13;;;;;;;11.85;5.72;;;;;;;5.91;59.63;98008.91;10589447;28;20078;-54
2021/04/02 21:46:16;;;;;;;11.68;5.28;;;;;;;5.82;60.13;98008.00;10590365;28;20078;-52
2021/04/02 21:51:17;;;;;;;10.10;4.90;;;;;;;5.72;59.93;98012.38;10589227;28;20044;-53
2021/04/02 21:56:19;;;;;;;15.20;5.72;;;;;;;5.62;60.33;98009.00;10590485;28;20046;-54
2021/04/02 22:01:21;;;;;;;12.63;4.72;;;;;;;5.50;60.73;98006.53;10589659;27;20124;-54
2021/04/02 22:06:23;;;;;;;11.52;4.60;;;;;;;5.47;60.96;98009.44;10588642;28;20055;-52
2021/04/02 22:11:24;;;;;;;10.23;4.32;;;;;;;5.41;60.89;98009.16;10590238;28;20142;-54
2021/04/02 22:16:27;;;;;;;13.85;4.50;;;;;;;5.33;60.79;98007.28;10590437;28;20052;-52
2021/04/02 22:21:29;;;;;;;10.23;4.40;;;;;;;5.25;61.17;98009.72;10588519;28;20491;-54
2021/04/02 22:26:31;;;;;;;10.55;4.70;;;;;;;5.17;61.22;98007.84;10589502;28;20056;-54
2021/04/02 22:31:33;;;;;;;11.88;5.25;;;;;;;5.14;61.65;98004.66;10589201;28;20150;-54
2021/04/02 22:36:36;;;;;;;12.00;4.87;;;;;;;5.07;62.00;98002.59;10590258;28;20047;-57
2021/04/02 22:41:37;;;;;;;8.30;4.97;;;;;;;5.05;61.38;98001.94;10589673;28;20051;-51
2021/04/02 22:46:40;;;;;;;10.45;5.00;;;;;;;4.99;61.50;97999.88;10590362;28;20047;-55
2021/04/02 22:51:42;;;;;;;10.32;5.00;;;;;;;4.93;61.81;97999.63;10587664;28;20117;-53
2021/04/02 22:56:43;;;;;;;9.93;5.18;;;;;;;4.88;62.21;97997.41;10587553;28;20048;-52
2021/04/02 23:01:46;;;;;;;10.43;5.05;;;;;;;4.87;62.23;97998.38;10587416;28;20043;-54
2021/04/02 23:06:47;;;;;;;9.93;5.03;;;;;;;4.82;62.11;97996.16;10586850;28;20043;-55
2021/04/02 23:11:49;;;;;;;13.25;5.43;;;;;;;4.76;62.50;97994.09;10587943;28;20054;-52
2021/04/02 23:16:51;;;;;;;10.18;4.88;;;;;;;4.74;62.05;97995.19;10586532;28;20047;-52
2021/04/02 23:21:54;;;;;;;11.68;4.78;;;;;;;4.71;62.07;97990.25;10587717;28;20100;-52
2021/04/02 23:26:56;;;;;;;11.80;5.63;;;;;;;4.70;62.44;97994.66;10590644;28;20071;-52
2021/04/02 23:31:58;;;;;;;10.75;5.07;;;;;;;4.68;62.17;97999.19;10586594;28;20124;-52
2021/04/02 23:37:00;;;;;;;12.20;5.35;;;;;;;4.65;61.79;97990.78;10586491;28;20108;-53